Time;durP1;ratioP1;P1;durP2;ratioP2;P2;SDS_P1;SDS_P2;PMS_P1;PMS_P2;Temp;Humidity;BMP_temperature;BMP_pressure;BME280_temperature;BME280_humidity;BME280_pressure;Samples;Min_cycle;Max_cycle;Signal;HPM_P1;HPM_P2
2021/07/11 00:00:31;;;;;;;3.40;1.30;;;17.60;99.90;;;;;;4996661;28;20030;-85
2021/07/11 00:02:57;;;;;;;2.20;1.40;;;17.80;99.90;;;;;;4978972;28;20556;-85
2021/07/11 00:05:25;;;;;;;2.53;1.15;;;17.90;99.90;;;;;;4996925;28;20065;-84
2021/07/11 00:07:51;;;;;;;2.10;1.48;;;17.50;99.90;;;;;;4979124;28;20034;-85
2021/07/11 00:10:17;;;;;;;2.38;1.33;;;17.50;99.90;;;;;;4978974;28;20071;-85
2021/07/11 00:12:46;;;;;;;4.50;1.52;;;17.60;99.90;;;;;;4979080;28;20503;-85
2021/07/11 00:15:14;;;;;;;8.10;1.17;;;17.70;99.90;;;;;;4978881;28;20084;-85
2021/07/11 00:17:41;;;;;;;5.88;1.38;;;17.60;99.90;;;;;;4978920;28;20442;-84
2021/07/11 00:20:09;;;;;;;5.57;1.70;;;17.70;99.90;;;;;;4996393;28;20026;-84
2021/07/11 00:22:35;;;;;;;2.30;1.17;;;17.30;99.90;;;;;;4978816;28;20062;-85
2021/07/11 00:25:01;;;;;;;2.55;1.35;;;17.50;99.90;;;;;;4978825;28;20042;-85
2021/07/11 00:27:27;;;;;;;2.03;1.48;;;17.30;99.90;;;;;;4979057;28;20030;-85
2021/07/11 00:29:53;;;;;;;2.88;1.30;;;17.40;99.90;;;;;;4978718;28;20026;-85
2021/07/11 00:32:18;;;;;;;1.73;1.35;;;17.40;99.90;;;;;;4996097;28;20033;-85
2021/07/11 00:34:44;;;;;;;1.63;1.40;;;17.50;99.90;;;;;;4979275;28;20096;-85
2021/07/11 00:37:10;;;;;;;2.95;1.63;;;17.40;99.90;;;;;;4996402;28;20027;-83
2021/07/11 00:39:35;;;;;;;4.32;1.27;;;17.50;99.90;;;;;;4978612;28;20022;-85
2021/07/11 00:42:01;;;;;;;3.42;1.20;;;17.40;99.90;;;;;;4978506;28;20390;-85
2021/07/11 00:44:27;;;;;;;3.47;1.25;;;17.40;99.90;;;;;;4995639;28;20023;-85
2021/07/11 00:46:54;;;;;;;7.32;1.50;;;17.30;99.90;;;;;;4978480;28;20030;-85
2021/07/11 00:49:20;;;;;;;3.33;1.48;;;17.30;99.90;;;;;;4978308;28;20053;-84
2021/07/11 00:51:45;;;;;;;2.60;1.50;;;17.30;99.90;;;;;;4995738;28;20031;-85
2021/07/11 00:54:11;;;;;;;1.50;1.30;;;17.20;99.90;;;;;;4978213;28;20093;-85
2021/07/11 00:56:37;;;;;;;1.85;1.30;;;17.20;99.90;;;;;;4978291;28;20498;-85
2021/07/11 00:59:02;;;;;;;3.10;1.55;;;17.30;99.90;;;;;;4995649;28;20022;-84
2021/07/11 01:01:39;;;;;;;3.88;1.67;;;17.20;99.90;;;;;;4978093;28;20104;-84
2021/07/11 01:04:13;;;;;;;3.60;1.55;;;17.30;99.90;;;;;;4995583;28;20054;-85
2021/07/11 01:06:42;;;;;;;2.17;1.38;;;17.30;99.90;;;;;;4978109;28;20034;-85
2021/07/11 01:09:11;;;;;;;4.53;1.52;;;17.30;99.90;;;;;;4995471;28;20027;-85
2021/07/11 01:11:50;;;;;;;2.80;1.40;;;17.50;99.90;;;;;;4977867;28;20544;-85
2021/07/11 01:14:16;;;;;;;1.70;1.20;;;17.50;99.90;;;;;;4978182;28;20381;-85
2021/07/11 01:16:46;;;;;;;1.65;1.20;;;17.40;99.90;;;;;;4995295;28;20050;-85
2021/07/11 01:19:27;;;;;;;2.10;1.35;;;17.50;99.90;;;;;;4977917;28;20030;-85
2021/07/11 01:21:54;;;;;;;2.10;1.40;;;17.40;99.90;;;;;;4977805;28;20030;-85
2021/07/11 01:24:26;;;;;;;6.57;1.27;;;17.30;99.90;;;;;;4977676;28;20033;-85
2021/07/11 01:26:52;;;;;;;2.65;1.45;;;17.40;99.90;;;;;;4977720;28;20390;-85
2021/07/11 01:29:20;;;;;;;1.88;1.40;;;17.50;99.90;;;;;;4977646;28;20022;-85
2021/07/11 01:31:46;;;;;;;4.30;1.38;;;17.50;99.90;;;;;;4994987;28;20368;-85
2021/07/11 01:34:13;;;;;;;2.13;1.20;;;17.60;99.90;;;;;;4977415;28;20026;-85
2021/07/11 01:36:40;;;;;;;4.53;1.38;;;17.50;99.90;;;;;;4977432;28;20487;-85
2021/07/11 01:39:06;;;;;;;2.13;1.50;;;17.50;99.90;;;;;;4977507;28;20018;-85
2021/07/11 01:41:33;;;;;;;3.20;1.70;;;17.50;99.90;;;;;;4977313;28;20033;-85
2021/07/11 01:44:00;;;;;;;3.03;1.15;;;17.50;99.90;;;;;;4977333;28;20113;-85
2021/07/11 01:46:27;;;;;;;3.53;1.40;;;17.60;99.90;;;;;;4977296;28;20540;-84
2021/07/11 01:48:53;;;;;;;5.15;1.30;;;17.60;99.90;;;;;;4977243;28;20117;-84
2021/07/11 01:51:22;;;;;;;2.38;1.20;;;17.60;99.90;;;;;;4977174;28;20030;-85
2021/07/11 01:53:48;;;;;;;3.15;1.75;;;17.50;99.90;;;;;;4977099;28;20117;-85
2021/07/11 01:56:14;;;;;;;3.65;1.10;;;17.50;99.90;;;;;;4976461;28;20030;-85
2021/07/11 01:58:41;;;;;;;3.63;1.27;;;17.60;99.90;;;;;;4977349;28;20026;-85
2021/07/11 02:01:10;;;;;;;2.17;1.30;;;17.60;99.90;;;;;;4976802;28;20470;-85
2021/07/11 02:03:36;;;;;;;4.53;1.58;;;17.30;99.90;;;;;;4977006;28;20034;-85
2021/07/11 02:06:03;;;;;;;2.95;1.25;;;17.20;99.90;;;;;;4976968;28;20048;-85
2021/07/11 02:08:28;;;;;;;2.60;1.15;;;17.30;99.90;;;;;;4976982;28;20030;-85
2021/07/11 02:10:55;;;;;;;3.60;1.30;;;17.20;99.90;;;;;;4994354;28;20540;-85
2021/07/11 02:13:34;;;;;;;3.13;1.45;;;17.20;99.90;;;;;;4994221;28;20027;-85
2021/07/11 02:16:08;;;;;;;1.40;1.30;;;17.10;99.90;;;;;;4994320;28;20023;-85
2021/07/11 02:18:34;;;;;;;3.58;1.45;;;17.10;99.90;;;;;;4976860;28;20501;-85
2021/07/11 02:21:00;;;;;;;5.10;1.45;;;17.10;99.90;;;;;;4976783;28;20058;-85
2021/07/11 02:23:31;;;;;;;1.95;1.38;;;17.10;99.90;;;;;;4994470;28;20478;-85
2021/07/11 02:25:57;;;;;;;1.63;1.23;;;17.20;99.90;;;;;;4976779;28;20113;-85
2021/07/11 02:28:24;;;;;;;3.90;1.50;;;17.40;99.90;;;;;;4976644;28;20474;-85
2021/07/11 02:30:57;;;;;;;3.38;1.30;;;17.50;99.90;;;;;;4976597;28;20026;-85
2021/07/11 02:33:36;;;;;;;5.15;1.60;;;17.30;99.90;;;;;;4976538;28;20022;-85
2021/07/11 02:36:22;;;;;;;3.67;1.30;;;17.30;99.90;;;;;;4976603;28;20390;-85
2021/07/11 02:38:50;;;;;;;5.07;1.48;;;17.00;99.90;;;;;;4976544;28;20494;-85
2021/07/11 02:41:18;;;;;;;4.60;1.40;;;17.00;99.90;;;;;;4977063;28;20023;-86
2021/07/11 02:43:45;;;;;;;3.28;1.50;;;17.00;99.90;;;;;;4976520;28;20030;-85
2021/07/11 02:46:14;;;;;;;5.15;1.80;;;17.10;99.90;;;;;;4976455;28;20033;-85
2021/07/11 02:48:42;;;;;;;2.67;1.40;;;17.10;99.90;;;;;;4976403;28;20026;-85
2021/07/11 02:51:11;;;;;;;2.13;1.48;;;17.20;99.90;;;;;;4976409;28;20031;-85
2021/07/11 02:53:38;;;;;;;4.10;1.50;;;17.20;99.90;;;;;;4976323;28;20033;-85
2021/07/11 02:56:05;;;;;;;6.45;1.50;;;17.30;99.90;;;;;;4976362;28;20018;-84
2021/07/11 02:58:34;;;;;;;1.85;1.40;;;17.10;99.90;;;;;;4976308;28;20037;-85
2021/07/11 03:01:01;;;;;;;3.58;1.48;;;17.10;99.90;;;;;;4976308;28;20479;-85
2021/07/11 03:03:28;;;;;;;3.83;1.30;;;17.10;99.90;;;;;;4993743;28;20513;-85
2021/07/11 03:05:55;;;;;;;3.50;1.45;;;17.00;99.90;;;;;;4976232;28;20117;-85
2021/07/11 03:08:20;;;;;;;2.38;1.27;;;16.80;99.90;;;;;;4996669;28;20034;-85
2021/07/11 03:10:48;;;;;;;1.60;1.35;;;17.00;99.90;;;;;;4980483;28;20050;-85
2021/07/11 03:13:17;;;;;;;2.67;1.60;;;17.10;99.90;;;;;;4980018;28;20398;-85
2021/07/11 03:15:43;;;;;;;2.60;1.45;;;16.90;99.90;;;;;;4980194;28;20045;-85
2021/07/11 03:18:08;;;;;;;4.78;1.30;;;16.90;99.90;;;;;;4979935;28;20475;-85
2021/07/11 03:20:35;;;;;;;5.30;1.30;;;16.80;99.90;;;;;;4997457;28;20027;-85
2021/07/11 03:23:02;;;;;;;1.65;1.30;;;16.90;99.90;;;;;;4980163;28;20034;-85
2021/07/11 03:25:28;;;;;;;4.03;1.27;;;16.80;99.90;;;;;;4979866;28;20521;-85
2021/07/11 03:27:55;;;;;;;2.97;1.48;;;16.90;99.90;;;;;;4979873;28;20121;-85
2021/07/11 03:30:22;;;;;;;3.53;1.40;;;17.10;99.90;;;;;;4979790;28;20089;-85
2021/07/11 03:32:56;;;;;;;4.53;1.55;;;17.20;99.90;;;;;;4980019;28;20030;-85
2021/07/11 03:35:53;;;;;;;1.60;1.20;;;17.20;99.90;;;;;;4979662;28;20029;-85
2021/07/11 03:38:26;;;;;;;6.93;1.38;;;17.40;99.90;;;;;;4972283;28;20439;-85
2021/07/11 03:40:55;;;;;;;3.07;1.53;;;17.40;99.90;;;;;;4979622;28;20030;-85
2021/07/11 03:43:25;;;;;;;1.67;1.20;;;17.30;99.90;;;;;;4997028;28;20553;-85
2021/07/11 03:45:55;;;;;;;5.65;1.13;;;17.30;99.90;;;;;;4979568;28;20037;-85
2021/07/11 03:48:25;;;;;;;5.13;1.40;;;17.30;99.90;;;;;;4979446;28;20030;-85
2021/07/11 03:50:55;;;;;;;3.35;1.40;;;17.30;99.90;;;;;;4996924;28;20482;-85
2021/07/11 03:53:27;;;;;;;2.20;1.35;;;17.20;99.90;;;;;;4979316;28;20022;-84
2021/07/11 03:55:55;;;;;;;3.72;1.40;;;17.20;99.90;;;;;;4979366;28;20027;-84
2021/07/11 03:58:22;;;;;;;3.30;1.15;;;17.20;99.90;;;;;;4996788;28;20029;-84
2021/07/11 04:00:52;;;;;;;2.65;1.60;;;17.20;99.90;;;;;;4996709;28;20556;-84
2021/07/11 04:03:20;;;;;;;5.35;1.63;;;17.10;99.90;;;;;;4979089;28;20498;-85
2021/07/11 04:05:46;;;;;;;3.33;1.38;;;17.20;99.90;;;;;;4979215;28;20054;-84
2021/07/11 04:08:16;;;;;;;4.22;1.50;;;17.20;99.90;;;;;;4996585;28;20038;-84
2021/07/11 04:10:43;;;;;;;4.15;1.70;;;17.10;99.90;;;;;;4997364;28;20485;-84
2021/07/11 04:13:09;;;;;;;6.35;1.70;;;17.10;99.90;;;;;;4978998;28;20019;-84
2021/07/11 04:15:35;;;;;;;5.82;1.70;;;17.00;99.90;;;;;;4996403;28;20025;-85
2021/07/11 04:18:05;;;;;;;3.05;1.40;;;17.00;99.90;;;;;;4978983;28;20035;-84
2021/07/11 04:20:32;;;;;;;2.55;1.65;;;16.90;99.90;;;;;;4978333;28;20077;-84
2021/07/11 04:23:00;;;;;;;2.85;1.48;;;16.90;99.90;;;;;;4996367;28;20027;-84
2021/07/11 04:25:33;;;;;;;2.50;1.50;;;16.90;99.90;;;;;;4996270;28;20026;-85
2021/07/11 04:27:59;;;;;;;3.35;1.65;;;17.00;99.90;;;;;;4978839;28;20057;-85
2021/07/11 04:30:25;;;;;;;2.83;1.70;;;17.00;99.90;;;;;;4978724;28;20091;-84
2021/07/11 04:32:51;;;;;;;5.20;1.60;;;16.90;99.90;;;;;;4978731;28;20431;-84
2021/07/11 04:35:17;;;;;;;4.78;1.77;;;17.00;99.90;;;;;;4995993;28;20026;-85
2021/07/11 04:37:42;;;;;;;3.88;1.58;;;17.10;99.90;;;;;;4978642;28;20018;-84
2021/07/11 04:40:09;;;;;;;8.30;1.80;;;17.30;99.90;;;;;;4996033;28;20030;-85
2021/07/11 04:42:35;;;;;;;10.60;1.58;;;17.30;99.90;;;;;;4978465;28;20161;-85
2021/07/11 04:45:02;;;;;;;4.55;1.70;;;17.20;99.90;;;;;;4978446;28;20065;-85
2021/07/11 04:47:28;;;;;;;4.25;1.38;;;17.20;99.90;;;;;;4978402;28;20379;-84
2021/07/11 04:49:54;;;;;;;3.70;1.77;;;17.20;99.90;;;;;;4978372;28;20037;-85
2021/07/11 04:52:20;;;;;;;6.20;1.80;;;17.20;99.90;;;;;;4978318;28;20030;-84
2021/07/11 04:54:47;;;;;;;6.78;1.70;;;17.30;99.90;;;;;;4978222;28;20490;-84
2021/07/11 04:57:13;;;;;;;3.63;1.67;;;17.20;99.90;;;;;;4978272;28;20049;-85
2021/07/11 04:59:39;;;;;;;7.95;2.08;;;17.10;99.90;;;;;;4978179;28;20113;-85
2021/07/11 05:02:04;;;;;;;2.60;1.50;;;17.10;99.90;;;;;;4977993;28;20050;-84
2021/07/11 05:04:30;;;;;;;7.30;1.50;;;17.10;99.90;;;;;;4978133;28;20142;-85
2021/07/11 05:06:56;;;;;;;6.53;1.90;;;17.20;99.90;;;;;;4978017;28;20030;-84
2021/07/11 05:09:21;;;;;;;2.92;1.45;;;17.30;99.90;;;;;;4978290;28;20081;-85
2021/07/11 05:11:47;;;;;;;4.53;1.67;;;17.20;99.90;;;;;;4977957;28;20026;-85
2021/07/11 05:14:13;;;;;;;6.88;1.55;;;17.20;99.90;;;;;;4977941;28;20067;-84
2021/07/11 05:16:39;;;;;;;5.63;1.60;;;17.20;99.90;;;;;;4977865;28;20026;-85
2021/07/11 05:19:04;;;;;;;2.95;1.30;;;17.30;99.90;;;;;;4977797;28;20026;-85
2021/07/11 05:21:31;;;;;;;4.65;1.48;;;17.40;99.90;;;;;;4995246;28;20105;-85
2021/07/11 05:23:57;;;;;;;3.50;1.40;;;17.30;99.90;;;;;;4995176;28;20044;-85
2021/07/11 05:26:23;;;;;;;2.25;1.67;;;17.40;99.90;;;;;;4977649;28;20085;-85
2021/07/11 05:28:49;;;;;;;2.55;1.42;;;17.50;99.90;;;;;;4977605;28;20412;-85
2021/07/11 05:31:15;;;;;;;3.50;1.60;;;17.40;99.90;;;;;;4976500;28;20027;-85
2021/07/11 05:33:40;;;;;;;4.07;1.40;;;17.60;99.90;;;;;;4977437;28;20034;-85
2021/07/11 05:36:11;;;;;;;7.18;1.70;;;17.60;99.90;;;;;;4977433;28;20018;-85
2021/07/11 05:38:38;;;;;;;3.90;1.60;;;17.60;99.90;;;;;;4977422;28;20059;-85
2021/07/11 05:41:04;;;;;;;2.83;1.35;;;17.70;99.90;;;;;;4977407;28;20077;-85
2021/07/11 05:43:30;;;;;;;5.63;1.60;;;17.70;99.90;;;;;;4994710;28;20018;-85
2021/07/11 05:45:56;;;;;;;5.65;1.90;;;17.80;99.90;;;;;;4977267;28;20073;-85
2021/07/11 05:48:22;;;;;;;6.05;1.65;;;17.70;99.90;;;;;;4977280;28;20022;-85
2021/07/11 05:50:48;;;;;;;2.80;1.58;;;17.80;99.90;;;;;;4977180;28;20101;-85
2021/07/11 05:53:14;;;;;;;2.97;1.67;;;17.60;99.90;;;;;;4977117;28;20034;-85
2021/07/11 05:55:40;;;;;;;2.50;1.38;;;17.60;99.90;;;;;;4977107;28;20445;-85
2021/07/11 05:58:07;;;;;;;1.88;1.42;;;17.80;99.90;;;;;;4977126;28;20026;-85
2021/07/11 06:00:34;;;;;;;3.22;1.55;;;17.90;99.90;;;;;;4994432;28;20390;-85
2021/07/11 06:02:59;;;;;;;4.82;1.55;;;17.90;99.90;;;;;;4976881;28;20097;-85
2021/07/11 06:05:25;;;;;;;2.60;1.58;;;18.00;99.90;;;;;;4977262;28;20030;-84
2021/07/11 06:07:51;;;;;;;2.58;1.67;;;18.10;99.90;;;;;;4994407;28;20126;-85
2021/07/11 06:10:17;;;;;;;4.30;1.30;;;18.10;99.90;;;;;;4976869;28;20054;-85
2021/07/11 06:12:44;;;;;;;3.03;1.40;;;18.20;99.90;;;;;;4994283;28;20037;-85
2021/07/11 06:15:10;;;;;;;3.97;1.40;;;18.30;99.90;;;;;;4976724;28;20057;-85
2021/07/11 06:17:36;;;;;;;3.55;1.60;;;18.20;99.90;;;;;;4976756;28;20145;-84
2021/07/11 06:20:08;;;;;;;5.72;1.50;;;18.20;99.90;;;;;;4994170;28;20078;-84
2021/07/11 06:22:34;;;;;;;2.47;1.50;;;18.20;99.90;;;;;;4976705;28;20390;-84
2021/07/11 06:25:06;;;;;;;2.50;1.42;;;18.10;99.90;;;;;;4976671;28;20371;-84
2021/07/11 06:27:37;;;;;;;2.55;1.60;;;18.00;99.90;;;;;;4976629;28;20026;-84
2021/07/11 06:30:11;;;;;;;4.05;1.70;;;18.10;99.90;;;;;;4976580;28;20033;-85
2021/07/11 06:32:38;;;;;;;2.22;1.50;;;18.20;99.90;;;;;;4976540;28;20030;-84
2021/07/11 06:35:05;;;;;;;2.70;1.80;;;18.30;99.90;;;;;;4976447;28;20023;-84
2021/07/11 06:37:31;;;;;;;2.95;1.65;;;18.10;99.90;;;;;;4976809;28;20089;-84
2021/07/11 06:39:56;;;;;;;5.05;1.77;;;18.10;99.90;;;;;;4976506;28;20026;-84
2021/07/11 06:42:22;;;;;;;3.70;1.70;;;18.20;99.90;;;;;;4976104;28;20050;-85
2021/07/11 06:44:48;;;;;;;5.22;1.88;;;18.30;99.90;;;;;;4976958;28;20022;-84
2021/07/11 06:47:13;;;;;;;4.25;1.90;;;18.30;99.90;;;;;;4976418;28;20034;-83
2021/07/11 06:49:39;;;;;;;3.70;1.70;;;18.40;99.90;;;;;;4976466;28;20465;-84
2021/07/11 06:52:05;;;;;;;5.32;1.65;;;18.40;99.90;;;;;;4993770;28;20033;-84
2021/07/11 06:54:31;;;;;;;2.97;1.77;;;18.30;99.90;;;;;;4976217;28;20030;-84
2021/07/11 06:56:57;;;;;;;6.38;1.70;;;18.50;99.90;;;;;;4993768;28;20026;-85
2021/07/11 06:59:22;;;;;;;3.13;1.92;;;18.50;99.90;;;;;;4976221;28;20045;-84
2021/07/11 07:01:48;;;;;;;5.78;1.67;;;18.60;99.90;;;;;;4976080;28;20108;-85
2021/07/11 07:04:14;;;;;;;2.55;1.40;;;18.70;99.90;;;;;;4976222;28;20031;-85
2021/07/11 07:06:40;;;;;;;2.97;1.63;;;18.70;99.90;;;;;;4976239;28;20426;-84
2021/07/11 07:09:05;;;;;;;2.83;1.58;;;18.90;99.90;;;;;;4976254;28;20113;-84
2021/07/11 07:11:31;;;;;;;2.00;1.52;;;19.10;99.90;;;;;;4976220;28;20026;-84
2021/07/11 07:13:57;;;;;;;2.28;1.60;;;19.10;99.90;;;;;;4976085;28;20458;-84
2021/07/11 07:16:23;;;;;;;1.73;1.35;;;19.30;99.90;;;;;;4976201;28;20037;-85
2021/07/11 07:18:48;;;;;;;2.50;1.40;;;19.30;99.90;;;;;;4976127;28;20061;-84
2021/07/11 07:21:14;;;;;;;3.72;1.70;;;19.40;99.90;;;;;;4976093;28;20109;-85
2021/07/11 07:23:40;;;;;;;2.95;1.23;;;19.40;99.90;;;;;;4976030;28;20022;-85
2021/07/11 07:26:06;;;;;;;2.42;1.48;;;19.40;99.90;;;;;;4976092;28;20026;-84
2021/07/11 07:28:31;;;;;;;2.40;1.52;;;19.60;99.90;;;;;;4976041;28;20041;-85
2021/07/11 07:30:57;;;;;;;3.88;1.70;;;19.60;99.90;;;;;;4975986;28;20030;-84
2021/07/11 07:33:23;;;;;;;2.53;1.48;;;19.60;99.90;;;;;;4975816;28;20037;-84
2021/07/11 07:35:49;;;;;;;3.88;1.50;;;19.60;99.90;;;;;;4976026;28;20027;-85
2021/07/11 07:38:15;;;;;;;4.40;1.30;;;19.60;99.90;;;;;;4993404;28;20025;-83
2021/07/11 07:40:41;;;;;;;2.63;1.35;;;19.50;99.90;;;;;;4993410;28;20105;-84
2021/07/11 07:43:07;;;;;;;2.13;1.42;;;19.40;99.90;;;;;;4975962;28;20487;-83
2021/07/11 07:45:33;;;;;;;4.55;1.38;;;19.50;99.90;;;;;;4975875;28;20035;-83
2021/07/11 07:47:59;;;;;;;2.50;1.35;;;19.60;99.90;;;;;;4993331;28;20026;-83
2021/07/11 07:50:24;;;;;;;3.25;1.40;;;19.60;99.90;;;;;;4976681;28;20390;-83
2021/07/11 07:52:50;;;;;;;3.60;1.58;;;19.60;99.90;;;;;;4975799;28;20022;-83
2021/07/11 07:55:16;;;;;;;4.28;1.20;;;19.50;99.90;;;;;;4995676;28;20022;-83
2021/07/11 07:57:42;;;;;;;5.22;1.52;;;19.40;99.90;;;;;;4979338;28;20117;-83
2021/07/11 08:00:11;;;;;;;5.18;1.33;;;19.30;99.90;;;;;;4979120;28;20057;-83
2021/07/11 08:02:38;;;;;;;1.30;1.08;;;19.30;99.90;;;;;;4979033;28;20391;-83
2021/07/11 08:05:04;;;;;;;2.63;1.20;;;19.40;99.90;;;;;;4979171;28;20537;-83
2021/07/11 08:07:30;;;;;;;2.00;1.25;;;19.30;99.90;;;;;;4979004;28;20027;-82
2021/07/11 08:09:56;;;;;;;4.82;1.40;;;19.30;99.90;;;;;;4996507;28;20038;-82
2021/07/11 08:12:22;;;;;;;1.95;1.33;;;19.30;99.90;;;;;;4978983;28;20026;-83
2021/07/11 08:14:47;;;;;;;2.33;1.20;;;19.50;99.90;;;;;;4978894;28;20050;-83
2021/07/11 08:17:13;;;;;;;2.00;1.08;;;19.60;99.90;;;;;;4978898;28;20025;-83
2021/07/11 08:19:39;;;;;;;3.33;1.50;;;19.60;99.90;;;;;;4978872;28;20026;-83
2021/07/11 08:22:05;;;;;;;2.83;1.30;;;19.70;99.90;;;;;;4978838;28;20023;-83
2021/07/11 08:24:31;;;;;;;1.52;1.13;;;19.80;99.90;;;;;;4978778;28;20121;-83
2021/07/11 08:26:57;;;;;;;6.50;1.40;;;20.00;99.90;;;;;;4978715;28;20457;-83
2021/07/11 08:29:22;;;;;;;3.05;1.50;;;19.90;99.90;;;;;;4978773;28;20093;-83
2021/07/11 08:31:48;;;;;;;3.58;1.50;;;20.00;99.90;;;;;;4978650;28;20124;-83
2021/07/11 08:34:14;;;;;;;6.03;1.45;;;19.90;99.90;;;;;;4996013;28;20030;-83
2021/07/11 08:36:40;;;;;;;2.17;1.45;;;19.80;99.90;;;;;;4996359;28;20025;-83
2021/07/11 08:39:05;;;;;;;2.25;1.20;;;19.80;99.90;;;;;;4978424;28;20026;-82
2021/07/11 08:41:32;;;;;;;2.55;1.33;;;19.80;99.90;;;;;;4978408;28;20028;-82
2021/07/11 08:43:58;;;;;;;1.67;1.20;;;19.70;99.90;;;;;;4995891;28;20074;-83
2021/07/11 08:46:23;;;;;;;2.80;1.23;;;19.60;99.90;;;;;;4995858;28;20055;-83
2021/07/11 08:48:51;;;;;;;2.42;1.50;;;19.70;99.90;;;;;;4978264;28;20022;-82
2021/07/11 08:51:17;;;;;;;4.00;1.60;;;19.80;99.90;;;;;;4978212;28;20398;-83
2021/07/11 08:53:47;;;;;;;1.48;1.10;;;19.80;99.90;;;;;;4977989;28;20037;-82
2021/07/11 08:56:18;;;;;;;3.40;1.42;;;19.80;99.90;;;;;;4978068;28;20061;-82
2021/07/11 08:58:52;;;;;;;7.60;1.55;;;19.70;99.90;;;;;;4978114;28;20045;-83
2021/07/11 09:01:20;;;;;;;3.97;1.17;;;19.70;99.90;;;;;;4977922;28;20043;-82
2021/07/11 09:04:01;;;;;;;2.78;1.52;;;19.70;99.90;;;;;;4978041;28;20039;-83
2021/07/11 09:06:37;;;;;;;3.00;1.50;;;19.70;99.90;;;;;;4978610;28;20034;-83
2021/07/11 09:09:03;;;;;;;2.03;1.20;;;19.80;99.90;;;;;;4977908;28;20069;-83
2021/07/11 09:11:28;;;;;;;5.10;1.30;;;19.70;99.90;;;;;;4977928;28;20057;-83
2021/07/11 09:13:54;;;;;;;2.35;1.42;;;20.00;99.90;;;;;;4995262;28;20030;-83
2021/07/11 09:16:20;;;;;;;3.22;1.40;;;20.10;99.90;;;;;;4977852;28;20025;-83
2021/07/11 09:18:51;;;;;;;4.90;1.15;;;20.20;99.90;;;;;;4995313;28;20031;-83
2021/07/11 09:21:17;;;;;;;3.88;1.30;;;20.50;99.90;;;;;;4978042;28;20033;-83
2021/07/11 09:23:43;;;;;;;1.83;1.38;;;20.60;99.90;;;;;;4977887;28;20026;-83
2021/07/11 09:26:14;;;;;;;3.50;1.40;;;20.80;99.90;;;;;;4995146;28;20445;-83
2021/07/11 09:28:48;;;;;;;1.67;1.20;;;20.90;99.90;;;;;;4977577;28;20038;-83
2021/07/11 09:31:20;;;;;;;3.17;1.30;;;21.00;99.90;;;;;;4977544;28;20033;-83
2021/07/11 09:33:54;;;;;;;2.10;1.17;;;20.90;99.90;;;;;;4977418;28;20494;-83
2021/07/11 09:36:22;;;;;;;4.07;1.17;;;21.10;99.90;;;;;;4977326;28;20537;-83
2021/07/11 09:38:51;;;;;;;2.63;1.35;;;21.60;99.90;;;;;;4977385;28;20026;-83
2021/07/11 09:41:23;;;;;;;5.65;1.13;;;21.70;99.90;;;;;;4994828;28;20027;-83
2021/07/11 09:43:55;;;;;;;1.85;1.10;;;21.40;99.90;;;;;;4994829;28;20500;-83
2021/07/11 09:46:22;;;;;;;2.95;1.40;;;21.10;99.90;;;;;;4977317;28;20556;-83
2021/07/11 09:48:48;;;;;;;2.03;1.20;;;21.00;99.90;;;;;;4977192;28;20033;-83
2021/07/11 09:51:23;;;;;;;2.33;1.38;;;21.20;99.90;;;;;;4977146;28;20030;-83
2021/07/11 09:53:49;;;;;;;1.77;1.20;;;21.30;99.90;;;;;;4977137;28;20113;-84
2021/07/11 09:56:47;;;;;;;1.45;1.30;;;21.50;99.90;;;;;;4994571;28;20029;-84
2021/07/11 09:59:15;;;;;;;2.13;1.10;;;21.70;99.90;;;;;;4994481;28;20030;-84
2021/07/11 10:01:43;;;;;;;2.83;1.30;;;21.90;99.90;;;;;;4976785;28;20046;-83
2021/07/11 10:04:09;;;;;;;2.65;1.40;;;22.20;99.90;;;;;;4977043;28;20026;-83
2021/07/11 10:06:36;;;;;;;2.17;1.20;;;22.50;99.90;;;;;;4977011;28;20057;-83
2021/07/11 10:09:05;;;;;;;2.00;1.27;;;22.30;99.90;;;;;;4976898;28;20038;-83
2021/07/11 10:11:31;;;;;;;1.98;1.23;;;21.80;99.90;;;;;;4976891;28;20026;-83
2021/07/11 10:13:57;;;;;;;1.13;1.00;;;21.60;99.90;;;;;;4994298;28;20387;-83
2021/07/11 10:16:24;;;;;;;1.60;1.08;;;21.80;99.90;;;;;;4993928;28;20116;-82
2021/07/11 10:18:59;;;;;;;2.60;1.40;;;21.80;99.90;;;;;;4994150;28;20023;-83
2021/07/11 10:21:37;;;;;;;7.10;1.58;;;21.50;99.90;;;;;;4976763;28;20018;-83
2021/07/11 10:24:03;;;;;;;2.83;1.40;;;21.20;99.90;;;;;;4994234;28;20371;-83
2021/07/11 10:26:40;;;;;;;2.63;1.33;;;21.10;99.90;;;;;;4976683;28;20085;-83
2021/07/11 10:29:17;;;;;;;2.10;1.50;;;21.00;99.90;;;;;;4976678;28;20125;-83
2021/07/11 10:31:46;;;;;;;2.03;1.40;;;20.80;99.90;;;;;;4976648;28;20398;-83
2021/07/11 10:34:23;;;;;;;3.38;1.15;;;20.80;99.90;;;;;;4993862;28;20030;-83
2021/07/11 10:36:49;;;;;;;2.90;1.35;;;20.70;99.90;;;;;;4976508;28;20100;-83
2021/07/11 10:39:16;;;;;;;3.35;1.30;;;20.80;99.90;;;;;;4976812;28;20050;-83
2021/07/11 10:41:52;;;;;;;2.50;1.30;;;21.00;99.90;;;;;;4976497;28;20026;-83
2021/07/11 10:44:21;;;;;;;2.47;1.58;;;21.20;99.90;;;;;;4993988;28;20482;-83
2021/07/11 10:46:57;;;;;;;2.10;1.42;;;21.10;99.90;;;;;;4976481;28;20423;-83
2021/07/11 10:49:28;;;;;;;2.75;1.38;;;21.10;99.90;;;;;;4993897;28;20383;-83
2021/07/11 10:51:59;;;;;;;2.55;1.10;;;21.20;99.90;;;;;;4976448;28;20034;-83
2021/07/11 10:54:29;;;;;;;10.00;1.33;;;21.40;99.90;;;;;;4993714;28;20026;-83
2021/07/11 10:56:56;;;;;;;1.90;1.13;;;21.60;99.90;;;;;;4976913;28;20394;-83
2021/07/11 10:59:32;;;;;;;3.10;1.10;;;22.10;99.90;;;;;;4993666;28;20065;-83
2021/07/11 11:02:00;;;;;;;2.50;1.40;;;22.30;99.90;;;;;;4976090;28;20117;-83
2021/07/11 11:04:27;;;;;;;1.98;1.30;;;23.00;99.90;;;;;;4976247;28;20034;-83
2021/07/11 11:06:53;;;;;;;5.72;1.10;;;23.10;99.90;;;;;;4993674;28;20057;-83
2021/07/11 11:09:43;;;;;;;2.50;1.20;;;23.10;99.90;;;;;;4976232;28;20026;-83
2021/07/11 11:12:29;;;;;;;2.80;1.30;;;23.00;99.90;;;;;;4993979;28;20072;-83
2021/07/11 11:14:59;;;;;;;2.47;1.10;;;23.40;99.90;;;;;;4976225;28;20490;-83
2021/07/11 11:17:35;;;;;;;2.72;1.15;;;23.30;99.90;;;;;;4993618;28;20025;-83
2021/07/11 11:20:12;;;;;;;4.18;1.00;;;23.20;99.90;;;;;;4976134;28;20034;-83
2021/07/11 11:22:38;;;;;;;3.65;1.60;;;23.20;99.90;;;;;;4976164;28;20025;-83
2021/07/11 11:25:05;;;;;;;0.95;0.80;;;23.50;99.90;;;;;;4976164;28;20113;-84
2021/07/11 11:27:37;;;;;;;2.85;1.10;;;23.80;99.90;;;;;;4993565;28;20031;-84
2021/07/11 11:30:11;;;;;;;2.28;1.00;;;23.60;99.90;;;;;;4980135;28;20088;-84
2021/07/11 11:32:36;;;;;;;2.78;1.20;;;23.70;99.90;;;;;;4979910;28;20081;-84
2021/07/11 11:35:04;;;;;;;1.30;0.88;;;24.20;99.90;;;;;;4979618;28;20038;-84
2021/07/11 11:37:32;;;;;;;1.60;0.90;;;24.40;99.90;;;;;;4979774;28;20027;-83
2021/07/11 11:40:05;;;;;;;1.15;0.77;;;24.30;99.90;;;;;;4979665;28;20050;-83
2021/07/11 11:42:30;;;;;;;2.25;1.00;;;24.80;99.90;;;;;;4997010;28;20026;-83
2021/07/11 11:45:07;;;;;;;1.92;1.20;;;24.70;99.90;;;;;;4997317;28;20470;-84
2021/07/11 11:47:35;;;;;;;1.08;0.85;;;24.20;99.90;;;;;;4979587;28;20390;-84
2021/07/11 11:50:30;;;;;;;2.13;0.82;;;24.20;99.90;;;;;;4979510;28;20033;-84
2021/07/11 11:53:13;;;;;;;1.45;1.15;;;24.90;99.90;;;;;;4980695;28;20482;-84
2021/07/11 11:55:50;;;;;;;2.08;0.90;;;25.90;99.90;;;;;;4979363;28;20030;-84
2021/07/11 11:58:28;;;;;;;2.33;0.90;;;25.00;99.90;;;;;;4996888;28;20027;-83
2021/07/11 12:01:07;;;;;;;1.35;0.90;;;24.80;99.90;;;;;;4979299;28;20023;-84
2021/07/11 12:03:36;;;;;;;1.42;0.80;;;24.20;99.90;;;;;;4979295;28;20038;-83
2021/07/11 12:06:03;;;;;;;2.75;0.93;;;23.70;99.90;;;;;;4996753;28;20391;-83
2021/07/11 12:08:41;;;;;;;4.25;0.90;;;23.10;99.90;;;;;;4996641;28;20022;-83
2021/07/11 12:11:09;;;;;;;3.38;2.30;;;22.70;99.90;;;;;;4996668;28;20426;-83
2021/07/11 12:13:35;;;;;;;1.33;1.00;;;22.40;99.90;;;;;;4978977;28;20478;-82
2021/07/11 12:16:09;;;;;;;1.52;1.20;;;22.00;99.90;;;;;;4978984;28;20026;-82
2021/07/11 12:18:45;;;;;;;;;;;21.50;99.90;;;;;;4996795;28;20019;-83
2021/07/11 12:21:17;;;;;;;4.50;1.27;;;21.00;99.90;;;;;;4978872;28;19968;-84
2021/07/11 12:23:42;;;;;;;9.60;1.95;;;20.60;99.90;;;;;;4979491;28;20430;-84
2021/07/11 12:26:08;;;;;;;10.00;1.63;;;20.20;99.90;;;;;;4978866;28;20054;-83
2021/07/11 12:28:35;;;;;;;2.50;1.50;;;20.00;99.90;;;;;;4996271;28;20022;-83
2021/07/11 12:31:02;;;;;;;6.43;1.95;;;19.90;99.90;;;;;;4978816;28;20038;-83
2021/07/11 12:33:33;;;;;;;3.00;1.70;;;19.90;99.90;;;;;;4978669;28;20046;-83
2021/07/11 12:36:00;;;;;;;3.45;1.90;;;20.00;99.90;;;;;;4978712;28;20022;-84
2021/07/11 12:38:38;;;;;;;2.72;1.48;;;20.20;99.90;;;;;;4978544;28;20093;-83
2021/07/11 12:41:07;;;;;;;2.08;1.40;;;20.40;99.90;;;;;;4995801;28;20081;-84
2021/07/11 12:43:34;;;;;;;1.60;1.50;;;20.50;99.90;;;;;;4978442;28;20025;-84
2021/07/11 12:46:12;;;;;;;2.03;1.30;;;20.60;99.90;;;;;;4995933;28;20025;-84
2021/07/11 12:48:47;;;;;;;1.65;1.27;;;20.90;99.90;;;;;;4996077;28;20030;-84
2021/07/11 12:51:14;;;;;;;1.63;1.08;;;21.20;99.90;;;;;;4978353;28;20029;-83
2021/07/11 12:53:39;;;;;;;4.22;1.30;;;21.30;99.90;;;;;;4995706;28;20483;-83